Sedillo, New Mexico
Current Conditions -  °F | °C
As of 7:52 AM on Saturday 25 Oct 2014 (Local Time) from KABQ Reporting Station
Clear Clear  
Wind Chill: 50°   Ceiling: Unl
Heat Index: 50°   Visibility: 10mi
Dew Point: 27°   Wind: 5mph
Humidity: 41%   Direction: 350°N
Pressure: 30.31"   Gusts: NA
Location:  34.9842°N, 106.322°W
Report Text: KABQ 251352Z 35004KT 10SM CLR 10/M03 A3031 RMK AO2 SLP213 T01001028
Loading
Personal Weather Stations






























Interactive Weather Map New forecast layout! Learn more

10-Day Weather Forecast

Advertisements
Track Severe Weather on mobile